sensor_id;sensor_type;location;lat;lon;timestamp;pressure;altitude;pressure_sealevel;temperature;humidity
9474;BME280;8865;47.636;7.692;2023-12-04T00:01:46;98348.03;;;-4.18;100.00
9474;BME280;8865;47.636;7.692;2023-12-04T00:04:12;98351.41;;;-4.16;100.00
9474;BME280;8865;47.636;7.692;2023-12-04T00:06:38;98351.44;;;-4.18;100.00
9474;BME280;8865;47.636;7.692;2023-12-04T00:09:04;98343.78;;;-4.18;100.00
9474;BME280;8865;47.636;7.692;2023-12-04T00:11:30;98325.09;;;-4.21;100.00
9474;BME280;8865;47.636;7.692;2023-12-04T00:13:56;98335.19;;;-4.17;100.00
9474;BME280;8865;47.636;7.692;2023-12-04T00:16:22;98329.03;;;-4.08;100.00
9474;BME280;8865;47.636;7.692;2023-12-04T00:18:49;98324.06;;;-4.14;100.00
9474;BME280;8865;47.636;7.692;2023-12-04T00:21:15;98326.53;;;-4.11;100.00
9474;BME280;8865;47.636;7.692;2023-12-04T00:23:41;98331.75;;;-4.14;100.00
9474;BME280;8865;47.636;7.692;2023-12-04T00:26:07;98322.38;;;-4.15;100.00
9474;BME280;8865;47.636;7.692;2023-12-04T00:28:36;98310.53;;;-4.18;100.00
9474;BME280;8865;47.636;7.692;2023-12-04T00:31:02;98313.16;;;-4.22;100.00
9474;BME280;8865;47.636;7.692;2023-12-04T00:33:28;98303.03;;;-4.25;100.00
9474;BME280;8865;47.636;7.692;2023-12-04T00:35:54;98311.50;;;-4.23;100.00
9474;BME280;8865;47.636;7.692;2023-12-04T00:38:20;98313.13;;;-4.19;100.00
9474;BME280;8865;47.636;7.692;2023-12-04T00:40:46;98304.50;;;-4.17;100.00
9474;BME280;8865;47.636;7.692;2023-12-04T00:43:12;98308.97;;;-4.23;100.00
9474;BME280;8865;47.636;7.692;2023-12-04T00:45:38;98301.28;;;-4.23;100.00
9474;BME280;8865;47.636;7.692;2023-12-04T00:48:04;98311.34;;;-4.17;100.00
9474;BME280;8865;47.636;7.692;2023-12-04T00:50:30;98304.31;;;-4.09;100.00
9474;BME280;8865;47.636;7.692;2023-12-04T00:52:56;98309.50;;;-4.12;100.00
9474;BME280;8865;47.636;7.692;2023-12-04T00:55:21;98308.75;;;-4.16;100.00
9474;BME280;8865;47.636;7.692;2023-12-04T00:57:47;98317.09;;;-4.09;100.00
9474;BME280;8865;47.636;7.692;2023-12-04T01:00:14;98313.09;;;-4.18;100.00
9474;BME280;8865;47.636;7.692;2023-12-04T01:02:40;98308.13;;;-4.25;100.00
9474;BME280;8865;47.636;7.692;2023-12-04T01:05:06;98308.22;;;-4.28;100.00
9474;BME280;8865;47.636;7.692;2023-12-04T01:07:32;98305.63;;;-4.27;100.00
9474;BME280;8865;47.636;7.692;2023-12-04T01:09:58;98304.69;;;-4.23;100.00
9474;BME280;8865;47.636;7.692;2023-12-04T01:12:24;98304.31;;;-4.09;100.00
9474;BME280;8865;47.636;7.692;2023-12-04T01:14:50;98306.91;;;-4.10;100.00
9474;BME280;8865;47.636;7.692;2023-12-04T01:17:16;98294.13;;;-4.10;100.00
9474;BME280;8865;47.636;7.692;2023-12-04T01:19:42;98282.25;;;-4.11;100.00
9474;BME280;8865;47.636;7.692;2023-12-04T01:22:09;98290.03;;;-4.16;100.00
9474;BME280;8865;47.636;7.692;2023-12-04T01:24:34;98279.69;;;-4.11;100.00
9474;BME280;8865;47.636;7.692;2023-12-04T01:27:00;98274.31;;;-4.02;100.00
9474;BME280;8865;47.636;7.692;2023-12-04T01:29:26;98279.38;;;-4.01;100.00
9474;BME280;8865;47.636;7.692;2023-12-04T01:31:52;98286.00;;;-3.93;100.00
9474;BME280;8865;47.636;7.692;2023-12-04T01:34:19;98276.66;;;-3.95;100.00
9474;BME280;8865;47.636;7.692;2023-12-04T01:36:45;98280.75;;;-3.89;100.00
9474;BME280;8865;47.636;7.692;2023-12-04T01:39:11;98275.47;;;-3.83;100.00
9474;BME280;8865;47.636;7.692;2023-12-04T01:41:37;98269.44;;;-3.80;100.00
9474;BME280;8865;47.636;7.692;2023-12-04T01:44:03;98271.97;;;-3.79;100.00
9474;BME280;8865;47.636;7.692;2023-12-04T01:46:29;98270.19;;;-3.77;100.00
9474;BME280;8865;47.636;7.692;2023-12-04T01:48:56;98277.00;;;-3.75;100.00
9474;BME280;8865;47.636;7.692;2023-12-04T01:51:22;98270.22;;;-3.78;100.00
9474;BME280;8865;47.636;7.692;2023-12-04T01:53:49;98272.94;;;-3.84;100.00
9474;BME280;8865;47.636;7.692;2023-12-04T01:56:17;98266.09;;;-3.82;100.00
9474;BME280;8865;47.636;7.692;2023-12-04T01:58:43;98262.63;;;-3.81;100.00
9474;BME280;8865;47.636;7.692;2023-12-04T02:01:10;98271.97;;;-3.79;100.00
9474;BME280;8865;47.636;7.692;2023-12-04T02:03:36;98269.31;;;-3.75;100.00
9474;BME280;8865;47.636;7.692;2023-12-04T02:06:07;98266.66;;;-3.72;100.00
9474;BME280;8865;47.636;7.692;2023-12-04T02:08:33;98262.38;;;-3.72;100.00
9474;BME280;8865;47.636;7.692;2023-12-04T02:11:00;98263.94;;;-3.66;100.00
9474;BME280;8865;47.636;7.692;2023-12-04T02:13:26;98263.94;;;-3.66;100.00
9474;BME280;8865;47.636;7.692;2023-12-04T02:15:54;98265.91;;;-3.76;100.00
9474;BME280;8865;47.636;7.692;2023-12-04T02:18:22;98266.88;;;-3.80;100.00
9474;BME280;8865;47.636;7.692;2023-12-04T02:20:48;98282.94;;;-3.75;100.00
9474;BME280;8865;47.636;7.692;2023-12-04T02:23:14;98279.41;;;-3.71;100.00
9474;BME280;8865;47.636;7.692;2023-12-04T02:25:40;98274.31;;;-3.71;100.00
9474;BME280;8865;47.636;7.692;2023-12-04T02:28:11;98269.06;;;-3.66;100.00
9474;BME280;8865;47.636;7.692;2023-12-04T02:30:41;98267.31;;;-3.66;100.00
9474;BME280;8865;47.636;7.692;2023-12-04T02:33:12;98265.53;;;-3.62;100.00
9474;BME280;8865;47.636;7.692;2023-12-04T02:35:40;98257.03;;;-3.64;100.00
9474;BME280;8865;47.636;7.692;2023-12-04T02:38:07;98253.53;;;-3.60;100.00
9474;BME280;8865;47.636;7.692;2023-12-04T02:40:34;98255.06;;;-3.54;100.00
9474;BME280;8865;47.636;7.692;2023-12-04T02:43:00;98260.06;;;-3.50;100.00
9474;BME280;8865;47.636;7.692;2023-12-04T02:45:26;98246.53;;;-3.55;100.00
9474;BME280;8865;47.636;7.692;2023-12-04T02:47:52;98248.13;;;-3.51;100.00
9474;BME280;8865;47.636;7.692;2023-12-04T02:50:18;98237.84;;;-3.49;100.00
9474;BME280;8865;47.636;7.692;2023-12-04T02:52:44;98221.69;;;-3.51;100.00
9474;BME280;8865;47.636;7.692;2023-12-04T02:55:10;98225.31;;;-3.59;100.00
9474;BME280;8865;47.636;7.692;2023-12-04T02:57:36;98234.72;;;-3.59;100.00
9474;BME280;8865;47.636;7.692;2023-12-04T03:00:02;98228.63;;;-3.55;100.00
9474;BME280;8865;47.636;7.692;2023-12-04T03:02:29;98219.97;;;-3.51;100.00
9474;BME280;8865;47.636;7.692;2023-12-04T03:04:55;98224.31;;;-3.53;100.00
9474;BME280;8865;47.636;7.692;2023-12-04T03:07:21;98213.16;;;-3.52;100.00
9474;BME280;8865;47.636;7.692;2023-12-04T03:09:50;98202.19;;;-3.55;100.00
9474;BME280;8865;47.636;7.692;2023-12-04T03:12:19;98201.16;;;-3.50;100.00
9474;BME280;8865;47.636;7.692;2023-12-04T03:14:45;98204.59;;;-3.51;100.00
9474;BME280;8865;47.636;7.692;2023-12-04T03:17:11;98195.09;;;-3.47;100.00
9474;BME280;8865;47.636;7.692;2023-12-04T03:19:37;98196.75;;;-3.45;100.00
9474;BME280;8865;47.636;7.692;2023-12-04T03:22:03;98194.22;;;-3.46;100.00
9474;BME280;8865;47.636;7.692;2023-12-04T03:24:29;98186.41;;;-3.42;100.00
9474;BME280;8865;47.636;7.692;2023-12-04T03:26:55;98177.72;;;-3.36;100.00
9474;BME280;8865;47.636;7.692;2023-12-04T03:29:21;98181.00;;;-3.32;100.00
9474;BME280;8865;47.636;7.692;2023-12-04T03:31:47;98177.72;;;-3.36;100.00
9474;BME280;8865;47.636;7.692;2023-12-04T03:34:13;98177.59;;;-3.33;100.00
9474;BME280;8865;47.636;7.692;2023-12-04T03:36:39;98170.94;;;-3.38;100.00
9474;BME280;8865;47.636;7.692;2023-12-04T03:39:04;98165.78;;;-3.37;100.00
9474;BME280;8865;47.636;7.692;2023-12-04T03:41:30;98157.41;;;-3.42;100.00
9474;BME280;8865;47.636;7.692;2023-12-04T03:43:56;98162.34;;;-3.36;100.00
9474;BME280;8865;47.636;7.692;2023-12-04T03:46:22;98160.47;;;-3.31;100.00
9474;BME280;8865;47.636;7.692;2023-12-04T03:48:48;98150.22;;;-3.31;100.00
9474;BME280;8865;47.636;7.692;2023-12-04T03:51:14;98144.16;;;-3.28;100.00
9474;BME280;8865;47.636;7.692;2023-12-04T03:53:40;98146.69;;;-3.27;100.00
9474;BME280;8865;47.636;7.692;2023-12-04T03:56:10;98152.59;;;-3.25;100.00
9474;BME280;8865;47.636;7.692;2023-12-04T03:58:36;98147.16;;;-3.15;100.00
9474;BME280;8865;47.636;7.692;2023-12-04T04:01:03;98140.34;;;-3.16;100.00
9474;BME280;8865;47.636;7.692;2023-12-04T04:03:29;98152.53;;;-3.23;100.00
9474;BME280;8865;47.636;7.692;2023-12-04T04:05:55;98141.41;;;-3.22;100.00
9474;BME280;8865;47.636;7.692;2023-12-04T04:08:21;98149.19;;;-3.25;100.00
9474;BME280;8865;47.636;7.692;2023-12-04T04:10:47;98150.69;;;-3.19;100.00
9474;BME280;8865;47.636;7.692;2023-12-04T04:13:13;98144.81;;;-3.21;100.00
9474;BME280;8865;47.636;7.692;2023-12-04T04:15:39;98149.19;;;-3.25;100.00
9474;BME280;8865;47.636;7.692;2023-12-04T04:18:05;98139.78;;;-3.25;100.00
9474;BME280;8865;47.636;7.692;2023-12-04T04:20:31;98129.44;;;-3.21;100.00
9474;BME280;8865;47.636;7.692;2023-12-04T04:22:57;98136.97;;;-3.17;100.00
9474;BME280;8865;47.636;7.692;2023-12-04T04:25:23;98130.09;;;-3.16;100.00
9474;BME280;8865;47.636;7.692;2023-12-04T04:27:49;98124.91;;;-3.13;100.00
9474;BME280;8865;47.636;7.692;2023-12-04T04:30:15;98121.41;;;-3.11;100.00
9474;BME280;8865;47.636;7.692;2023-12-04T04:32:43;98122.97;;;-3.07;100.00
9474;BME280;8865;47.636;7.692;2023-12-04T04:35:09;98121.09;;;-3.01;100.00
9474;BME280;8865;47.636;7.692;2023-12-04T04:37:35;98122.97;;;-3.07;100.00
9474;BME280;8865;47.636;7.692;2023-12-04T04:40:01;98128.81;;;-3.03;100.00
9474;BME280;8865;47.636;7.692;2023-12-04T04:42:27;98125.28;;;-2.99;100.00
9474;BME280;8865;47.636;7.692;2023-12-04T04:44:53;98115.56;;;-2.89;100.00
9474;BME280;8865;47.636;7.692;2023-12-04T04:47:19;98113.03;;;-2.91;100.00
9474;BME280;8865;47.636;7.692;2023-12-04T04:49:45;98115.50;;;-2.88;100.00
9474;BME280;8865;47.636;7.692;2023-12-04T04:52:11;98110.28;;;-2.84;100.00
9474;BME280;8865;47.636;7.692;2023-12-04T04:54:38;98104.38;;;-2.87;100.00
9474;BME280;8865;47.636;7.692;2023-12-04T04:57:04;98100.06;;;-2.86;100.00
9474;BME280;8865;47.636;7.692;2023-12-04T04:59:31;98094.72;;;-2.80;100.00
9474;BME280;8865;47.636;7.692;2023-12-04T05:01:57;98088.72;;;-2.79;100.00
9474;BME280;8865;47.636;7.692;2023-12-04T05:04:23;98083.38;;;-2.73;100.00
9474;BME280;8865;47.636;7.692;2023-12-04T05:06:49;98073.91;;;-2.71;100.00
9474;BME280;8865;47.636;7.692;2023-12-04T05:09:15;98080.66;;;-2.68;100.00
9474;BME280;8865;47.636;7.692;2023-12-04T05:11:41;98088.34;;;-2.68;100.00
9474;BME280;8865;47.636;7.692;2023-12-04T05:14:07;98088.97;;;-2.61;100.00
9474;BME280;8865;47.636;7.692;2023-12-04T05:16:33;98072.09;;;-2.67;100.00
9474;BME280;8865;47.636;7.692;2023-12-04T05:18:59;98066.78;;;-2.62;100.00
9474;BME280;8865;47.636;7.692;2023-12-04T05:21:25;98062.56;;;-2.63;100.00
9474;BME280;8865;47.636;7.692;2023-12-04T05:23:51;98059.28;;;-2.67;100.00
9474;BME280;8865;47.636;7.692;2023-12-04T05:26:17;98055.63;;;-2.61;100.00
9474;BME280;8865;47.636;7.692;2023-12-04T05:28:43;98049.50;;;-2.57;100.00
9474;BME280;8865;47.636;7.692;2023-12-04T05:31:09;98058.88;;;-2.56;100.00
9474;BME280;8865;47.636;7.692;2023-12-04T05:33:35;98056.28;;;-2.55;100.00
9474;BME280;8865;47.636;7.692;2023-12-04T05:36:01;98055.81;;;-2.42;100.00
9474;BME280;8865;47.636;7.692;2023-12-04T05:38:27;98048.13;;;-2.42;100.00
9474;BME280;8865;47.636;7.692;2023-12-04T05:40:53;98033.63;;;-2.43;100.00
9474;BME280;8865;47.636;7.692;2023-12-04T05:43:20;98039.75;;;-2.47;100.00
9474;BME280;8865;47.636;7.692;2023-12-04T05:45:46;98027.72;;;-2.45;100.00
9474;BME280;8865;47.636;7.692;2023-12-04T05:48:12;98029.50;;;-2.47;100.00
9474;BME280;8865;47.636;7.692;2023-12-04T05:50:38;98025.28;;;-2.48;100.00
9474;BME280;8865;47.636;7.692;2023-12-04T05:53:06;98046.44;;;-2.43;100.00
9474;BME280;8865;47.636;7.692;2023-12-04T05:55:33;98037.75;;;-2.39;100.00
9474;BME280;8865;47.636;7.692;2023-12-04T05:57:59;98045.56;;;-2.42;100.00
9474;BME280;8865;47.636;7.692;2023-12-04T06:00:25;98056.59;;;-2.40;100.00
9474;BME280;8865;47.636;7.692;2023-12-04T06:02:51;98051.13;;;-2.55;100.00
9474;BME280;8865;47.636;7.692;2023-12-04T06:05:17;98055.84;;;-2.67;100.00
9474;BME280;8865;47.636;7.692;2023-12-04T06:07:43;98052.84;;;-2.55;100.00
9474;BME280;8865;47.636;7.692;2023-12-04T06:10:09;98053.69;;;-2.55;100.00
9474;BME280;8865;47.636;7.692;2023-12-04T06:12:35;98051.91;;;-2.53;100.00
9474;BME280;8865;47.636;7.692;2023-12-04T06:15:01;98049.22;;;-2.49;100.00
9474;BME280;8865;47.636;7.692;2023-12-04T06:17:28;98046.66;;;-2.49;100.00
9474;BME280;8865;47.636;7.692;2023-12-04T06:19:54;98026.44;;;-2.57;100.00
9474;BME280;8865;47.636;7.692;2023-12-04T06:22:20;98016.94;;;-2.55;100.00
9474;BME280;8865;47.636;7.692;2023-12-04T06:24:48;98019.47;;;-2.54;100.00
9474;BME280;8865;47.636;7.692;2023-12-04T06:27:16;98031.41;;;-2.53;100.00
9474;BME280;8865;47.636;7.692;2023-12-04T06:29:44;98030.56;;;-2.53;100.00
9474;BME280;8865;47.636;7.692;2023-12-04T06:32:14;98029.78;;;-2.55;100.00
9474;BME280;8865;47.636;7.692;2023-12-04T06:34:41;98041.66;;;-2.53;100.00
9474;BME280;8865;47.636;7.692;2023-12-04T06:37:11;98026.38;;;-2.56;100.00
9474;BME280;8865;47.636;7.692;2023-12-04T06:39:39;98007.56;;;-2.55;100.00
9474;BME280;8865;47.636;7.692;2023-12-04T06:42:06;98052.56;;;-2.47;100.00
9474;BME280;8865;47.636;7.692;2023-12-04T06:44:33;98026.16;;;-2.49;100.00
9474;BME280;8865;47.636;7.692;2023-12-04T06:47:00;98009.09;;;-2.51;100.00
9474;BME280;8865;47.636;7.692;2023-12-04T06:49:32;98000.28;;;-2.43;100.00
9474;BME280;8865;47.636;7.692;2023-12-04T06:51:59;98026.88;;;-2.46;100.00
9474;BME280;8865;47.636;7.692;2023-12-04T06:54:26;98018.88;;;-2.38;100.00
9474;BME280;8865;47.636;7.692;2023-12-04T06:56:52;98012.81;;;-2.36;100.00
9474;BME280;8865;47.636;7.692;2023-12-04T06:59:19;98000.63;;;-2.30;100.00
9474;BME280;8865;47.636;7.692;2023-12-04T07:01:46;98007.34;;;-2.26;100.00
9474;BME280;8865;47.636;7.692;2023-12-04T07:04:12;97999.94;;;-2.34;100.00
9474;BME280;8865;47.636;7.692;2023-12-04T07:06:38;97987.94;;;-2.34;100.00
9474;BME280;8865;47.636;7.692;2023-12-04T07:09:06;98001.50;;;-2.30;100.00
9474;BME280;8865;47.636;7.692;2023-12-04T07:11:34;97996.44;;;-2.31;100.00
9474;BME280;8865;47.636;7.692;2023-12-04T07:14:01;97994.34;;;-2.22;100.00
9474;BME280;8865;47.636;7.692;2023-12-04T07:16:27;97985.56;;;-2.16;100.00
9474;BME280;8865;47.636;7.692;2023-12-04T07:18:53;97969.31;;;-2.17;100.00
9474;BME280;8865;47.636;7.692;2023-12-04T07:21:20;97930.84;;;-2.17;100.00
9474;BME280;8865;47.636;7.692;2023-12-04T07:23:46;97909.56;;;-2.19;100.00
9474;BME280;8865;47.636;7.692;2023-12-04T07:26:12;97878.13;;;-2.24;100.00
9474;BME280;8865;47.636;7.692;2023-12-04T07:28:38;97879.78;;;-2.23;100.00
9474;BME280;8865;47.636;7.692;2023-12-04T07:31:04;97892.22;;;-2.13;100.00
9474;BME280;8865;47.636;7.692;2023-12-04T07:33:30;97900.22;;;-1.99;100.00
9474;BME280;8865;47.636;7.692;2023-12-04T07:35:56;97917.63;;;-1.85;100.00
9474;BME280;8865;47.636;7.692;2023-12-04T07:38:22;97909.41;;;-1.73;100.00
9474;BME280;8865;47.636;7.692;2023-12-04T07:40:48;97917.66;;;-1.66;100.00
9474;BME280;8865;47.636;7.692;2023-12-04T07:43:14;97925.50;;;-1.69;100.00
9474;BME280;8865;47.636;7.692;2023-12-04T07:45:41;97927.56;;;-1.77;100.00
9474;BME280;8865;47.636;7.692;2023-12-04T07:48:07;97945.22;;;-1.70;100.00
9474;BME280;8865;47.636;7.692;2023-12-04T07:50:33;97964.38;;;-1.99;100.00
9474;BME280;8865;47.636;7.692;2023-12-04T07:52:59;97957.06;;;-1.88;100.00
9474;BME280;8865;47.636;7.692;2023-12-04T07:55:25;97935.59;;;-1.85;100.00
9474;BME280;8865;47.636;7.692;2023-12-04T07:57:51;97946.28;;;-1.96;100.00
9474;BME280;8865;47.636;7.692;2023-12-04T08:00:17;97982.22;;;-2.18;100.00
9474;BME280;8865;47.636;7.692;2023-12-04T08:02:44;98024.06;;;-2.16;100.00
9474;BME280;8865;47.636;7.692;2023-12-04T08:05:12;97991.09;;;-2.05;100.00
9474;BME280;8865;47.636;7.692;2023-12-04T08:07:38;97976.31;;;-1.98;100.00
9474;BME280;8865;47.636;7.692;2023-12-04T08:10:05;98007.41;;;-1.84;100.00
9474;BME280;8865;47.636;7.692;2023-12-04T08:12:32;98017.06;;;-1.68;100.00
9474;BME280;8865;47.636;7.692;2023-12-04T08:14:59;97993.31;;;-1.73;100.00
9474;BME280;8865;47.636;7.692;2023-12-04T08:17:26;98023.06;;;-1.69;100.00
9474;BME280;8865;47.636;7.692;2023-12-04T08:19:51;98001.59;;;-1.67;100.00
9474;BME280;8865;47.636;7.692;2023-12-04T08:22:17;97969.56;;;-1.58;100.00
9474;BME280;8865;47.636;7.692;2023-12-04T08:24:43;97958.25;;;-1.54;100.00
9474;BME280;8865;47.636;7.692;2023-12-04T08:27:09;97948.69;;;-1.50;100.00
9474;BME280;8865;47.636;7.692;2023-12-04T08:29:36;97952.91;;;-1.49;100.00
9474;BME280;8865;47.636;7.692;2023-12-04T08:32:02;97959.53;;;-1.44;100.00
9474;BME280;8865;47.636;7.692;2023-12-04T08:34:29;97944.69;;;-1.37;100.00
9474;BME280;8865;47.636;7.692;2023-12-04T08:36:55;97941.44;;;-1.40;100.00
9474;BME280;8865;47.636;7.692;2023-12-04T08:39:21;97937.97;;;-1.39;100.00
9474;BME280;8865;47.636;7.692;2023-12-04T08:41:48;97950.63;;;-1.35;100.00
9474;BME280;8865;47.636;7.692;2023-12-04T08:44:14;97967.22;;;-1.23;100.00
9474;BME280;8865;47.636;7.692;2023-12-04T08:46:41;97955.22;;;-1.22;100.00
9474;BME280;8865;47.636;7.692;2023-12-04T08:49:07;97952.44;;;-1.18;100.00
9474;BME280;8865;47.636;7.692;2023-12-04T08:51:33;97948.63;;;-1.09;100.00
9474;BME280;8865;47.636;7.692;2023-12-04T08:54:00;97956.28;;;-1.08;100.00
9474;BME280;8865;47.636;7.692;2023-12-04T08:56:26;97949.84;;;-0.97;100.00
9474;BME280;8865;47.636;7.692;2023-12-04T08:58:52;97985.34;;;-0.86;100.00
9474;BME280;8865;47.636;7.692;2023-12-04T09:01:18;97957.06;;;-1.05;100.00
9474;BME280;8865;47.636;7.692;2023-12-04T09:03:44;97966.56;;;-1.08;100.00
9474;BME280;8865;47.636;7.692;2023-12-04T09:06:10;97953.28;;;-1.17;100.00
9474;BME280;8865;47.636;7.692;2023-12-04T09:08:36;97955.66;;;-1.13;100.00
9474;BME280;8865;47.636;7.692;2023-12-04T09:11:02;97919.31;;;-1.05;100.00
9474;BME280;8865;47.636;7.692;2023-12-04T09:13:29;97891.75;;;-1.20;100.00
9474;BME280;8865;47.636;7.692;2023-12-04T09:15:56;97902.97;;;-1.42;100.00
9474;BME280;8865;47.636;7.692;2023-12-04T09:18:22;97948.41;;;-1.23;100.00
9474;BME280;8865;47.636;7.692;2023-12-04T09:20:48;97946.16;;;-1.31;100.00
9474;BME280;8865;47.636;7.692;2023-12-04T09:23:14;97954.31;;;-1.21;100.00
9474;BME280;8865;47.636;7.692;2023-12-04T09:25:40;97943.78;;;-1.36;100.00
9474;BME280;8865;47.636;7.692;2023-12-04T09:28:06;97940.28;;;-1.33;100.00
9474;BME280;8865;47.636;7.692;2023-12-04T09:30:35;97955.91;;;-1.19;100.00
9474;BME280;8865;47.636;7.692;2023-12-04T09:33:01;97957.75;;;-1.02;100.00
9474;BME280;8865;47.636;7.692;2023-12-04T09:35:27;97944.16;;;-0.85;100.00
9474;BME280;8865;47.636;7.692;2023-12-04T09:37:53;97923.03;;;-0.92;100.00
9474;BME280;8865;47.636;7.692;2023-12-04T09:40:20;97925.66;;;-0.93;100.00
9474;BME280;8865;47.636;7.692;2023-12-04T09:42:46;97933.38;;;-0.74;100.00
9474;BME280;8865;47.636;7.692;2023-12-04T09:45:12;97935.34;;;-0.79;100.00
9474;BME280;8865;47.636;7.692;2023-12-04T09:47:39;97971.25;;;-0.97;100.00
9474;BME280;8865;47.636;7.692;2023-12-04T09:50:07;97963.88;;;-0.85;100.00
9474;BME280;8865;47.636;7.692;2023-12-04T09:52:34;97986.03;;;-1.02;100.00
9474;BME280;8865;47.636;7.692;2023-12-04T09:55:01;97983.03;;;-0.93;100.00
9474;BME280;8865;47.636;7.692;2023-12-04T09:57:27;98012.94;;;-0.90;100.00
9474;BME280;8865;47.636;7.692;2023-12-04T09:59:54;98018.16;;;-0.73;100.00
9474;BME280;8865;47.636;7.692;2023-12-04T10:02:20;97996.84;;;-0.75;100.00
9474;BME280;8865;47.636;7.692;2023-12-04T10:04:47;98005.16;;;-0.69;100.00
9474;BME280;8865;47.636;7.692;2023-12-04T10:07:13;97983.34;;;-0.80;100.00
9474;BME280;8865;47.636;7.692;2023-12-04T10:09:41;97968.91;;;-0.82;100.00
9474;BME280;8865;47.636;7.692;2023-12-04T10:12:07;97955.69;;;-0.94;100.00
9474;BME280;8865;47.636;7.692;2023-12-04T10:14:33;97936.78;;;-0.93;100.00
9474;BME280;8865;47.636;7.692;2023-12-04T10:16:59;97922.41;;;-0.97;100.00
9474;BME280;8865;47.636;7.692;2023-12-04T10:19:27;97920.88;;;-1.01;100.00
9474;BME280;8865;47.636;7.692;2023-12-04T10:21:56;97914.69;;;-0.97;100.00
9474;BME280;8865;47.636;7.692;2023-12-04T10:26:54;97926.75;;;-0.99;100.00
9474;BME280;8865;47.636;7.692;2023-12-04T10:29:20;97915.53;;;-0.96;100.00
9474;BME280;8865;47.636;7.692;2023-12-04T10:31:47;97909.50;;;-0.95;100.00
9474;BME280;8865;47.636;7.692;2023-12-04T10:34:16;97895.78;;;-0.96;100.00
9474;BME280;8865;47.636;7.692;2023-12-04T10:36:42;97857.56;;;-1.03;100.00
9474;BME280;8865;47.636;7.692;2023-12-04T10:39:11;97841.97;;;-1.18;100.00
9474;BME280;8865;47.636;7.692;2023-12-04T10:41:39;97848.25;;;-1.06;100.00
9474;BME280;8865;47.636;7.692;2023-12-04T10:44:05;97843.13;;;-1.06;100.00
9474;BME280;8865;47.636;7.692;2023-12-04T10:46:32;97842.16;;;-1.22;100.00
9474;BME280;8865;47.636;7.692;2023-12-04T10:48:59;97835.81;;;-1.15;100.00
9474;BME280;8865;47.636;7.692;2023-12-04T10:51:26;97824.38;;;-1.08;100.00
9474;BME280;8865;47.636;7.692;2023-12-04T10:53:53;97822.84;;;-1.31;100.00
9474;BME280;8865;47.636;7.692;2023-12-04T10:56:36;97820.56;;;-1.18;100.00
9474;BME280;8865;47.636;7.692;2023-12-04T10:59:11;97803.34;;;-1.35;100.00
9474;BME280;8865;47.636;7.692;2023-12-04T11:01:41;97800.75;;;-1.35;100.00
9474;BME280;8865;47.636;7.692;2023-12-04T11:04:10;97810.06;;;-1.33;100.00
9474;BME280;8865;47.636;7.692;2023-12-04T11:06:40;97814.94;;;-1.27;100.00
9474;BME280;8865;47.636;7.692;2023-12-04T11:09:08;97813.25;;;-1.28;100.00
9474;BME280;8865;47.636;7.692;2023-12-04T11:11:38;97806.38;;;-1.08;100.00
9474;BME280;8865;47.636;7.692;2023-12-04T11:14:08;97807.13;;;-1.06;100.00
9474;BME280;8865;47.636;7.692;2023-12-04T11:16:45;97787.44;;;-1.24;100.00
9474;BME280;8865;47.636;7.692;2023-12-04T11:22:11;97743.16;;;-1.30;100.00
9474;BME280;8865;47.636;7.692;2023-12-04T11:24:38;97766.88;;;-1.24;100.00
9474;BME280;8865;47.636;7.692;2023-12-04T11:27:05;97773.16;;;-1.30;100.00
9474;BME280;8865;47.636;7.692;2023-12-04T11:29:32;97758.19;;;-1.22;100.00
9474;BME280;8865;47.636;7.692;2023-12-04T16:07:12;97463.69;;;0.35;100.00
9474;BME280;8865;47.636;7.692;2023-12-04T16:09:38;97465.38;;;0.36;100.00
9474;BME280;8865;47.636;7.692;2023-12-04T16:12:05;97461.63;;;0.42;100.00
9474;BME280;8865;47.636;7.692;2023-12-04T16:14:31;97457.28;;;0.42;100.00
9474;BME280;8865;47.636;7.692;2023-12-04T16:16:57;97455.19;;;0.49;100.00
9474;BME280;8865;47.636;7.692;2023-12-04T16:19:23;97439.72;;;0.49;100.00
9474;BME280;8865;47.636;7.692;2023-12-04T16:21:49;97439.91;;;0.46;100.00
9474;BME280;8865;47.636;7.692;2023-12-04T16:24:15;97438.09;;;0.48;100.00
9474;BME280;8865;47.636;7.692;2023-12-04T16:26:41;97427.06;;;0.60;100.00
9474;BME280;8865;47.636;7.692;2023-12-04T16:29:07;97428.97;;;0.57;100.00
9474;BME280;8865;47.636;7.692;2023-12-04T16:31:33;97430.38;;;0.62;100.00
9474;BME280;8865;47.636;7.692;2023-12-04T16:33:59;97413.06;;;0.64;100.00
9474;BME280;8865;47.636;7.692;2023-12-04T16:36:25;97407.53;;;0.70;100.00
9474;BME280;8865;47.636;7.692;2023-12-04T16:38:51;97407.53;;;0.70;100.00
9474;BME280;8865;47.636;7.692;2023-12-04T16:41:17;97406.25;;;0.78;100.00
9474;BME280;8865;47.636;7.692;2023-12-04T16:43:43;97409.00;;;0.89;100.00
9474;BME280;8865;47.636;7.692;2023-12-04T16:46:09;97406.59;;;0.86;100.00
9474;BME280;8865;47.636;7.692;2023-12-04T16:48:36;97408.72;;;0.94;100.00
9474;BME280;8865;47.636;7.692;2023-12-04T16:51:03;97406.13;;;0.94;100.00
9474;BME280;8865;47.636;7.692;2023-12-04T16:53:30;97399.53;;;0.89;100.00
9474;BME280;8865;47.636;7.692;2023-12-04T16:55:59;97395.00;;;0.93;100.00
9474;BME280;8865;47.636;7.692;2023-12-04T16:58:25;97396.59;;;0.96;100.00
9474;BME280;8865;47.636;7.692;2023-12-04T17:00:51;97393.34;;;0.92;100.00
9474;BME280;8865;47.636;7.692;2023-12-04T17:03:17;97392.25;;;0.96;100.00
9474;BME280;8865;47.636;7.692;2023-12-04T17:05:43;97392.25;;;0.96;100.00
9474;BME280;8865;47.636;7.692;2023-12-04T17:08:09;97386.91;;;0.99;100.00
9474;BME280;8865;47.636;7.692;2023-12-04T17:10:35;97379.06;;;1.01;100.00
9474;BME280;8865;47.636;7.692;2023-12-04T17:13:01;97381.84;;;0.98;100.00
9474;BME280;8865;47.636;7.692;2023-12-04T17:15:29;97395.75;;;0.95;100.00
9474;BME280;8865;47.636;7.692;2023-12-04T17:17:55;97388.75;;;0.97;100.00
9474;BME280;8865;47.636;7.692;2023-12-04T17:20:21;97378.25;;;1.00;100.00
9474;BME280;8865;47.636;7.692;2023-12-04T17:22:47;97373.19;;;0.99;100.00
9474;BME280;8865;47.636;7.692;2023-12-04T17:25:13;97371.53;;;0.98;100.00
9474;BME280;8865;47.636;7.692;2023-12-04T17:27:40;97372.53;;;0.95;100.00
9474;BME280;8865;47.636;7.692;2023-12-04T17:30:07;97362.78;;;1.00;100.00
9474;BME280;8865;47.636;7.692;2023-12-04T17:32:34;97355.41;;;1.09;100.00
9474;BME280;8865;47.636;7.692;2023-12-04T17:35:01;97363.03;;;1.10;100.00
9474;BME280;8865;47.636;7.692;2023-12-04T17:37:27;97361.84;;;1.16;100.00
9474;BME280;8865;47.636;7.692;2023-12-04T17:39:53;97355.75;;;1.17;100.00
9474;BME280;8865;47.636;7.692;2023-12-04T17:42:19;97357.22;;;1.21;100.00
9474;BME280;8865;47.636;7.692;2023-12-04T17:44:45;97353.91;;;1.19;100.00
9474;BME280;8865;47.636;7.692;2023-12-04T17:47:11;97352.59;;;1.26;100.00
9474;BME280;8865;47.636;7.692;2023-12-04T17:49:38;97347.16;;;1.31;100.00